createdAt,value
2022-12-24T00:01:05.673Z,59.77
2022-12-24T00:03:39.670Z,60.27
2022-12-24T00:06:20.487Z,62.53
2022-12-24T00:08:54.037Z,60.80
2022-12-24T00:11:28.077Z,55.57
2022-12-24T00:13:57.625Z,52.70
2022-12-24T00:16:26.886Z,58.00
2022-12-24T00:18:56.048Z,62.27
2022-12-24T00:21:25.213Z,54.73
2022-12-24T00:23:56.054Z,49.30
2022-12-24T00:26:25.291Z,55.03
2022-12-24T00:28:54.669Z,54.13
2022-12-24T00:31:24.038Z,56.63
2022-12-24T00:33:53.406Z,55.97
2022-12-24T00:36:31.272Z,54.07
2022-12-24T00:39:01.749Z,51.53
2022-12-24T00:41:30.521Z,52.90
2022-12-24T00:44:01.441Z,48.77
2022-12-24T00:46:33.134Z,58.57
2022-12-24T00:49:03.218Z,51.03
2022-12-24T00:51:32.831Z,50.83
2022-12-24T00:54:03.572Z,49.27
2022-12-24T00:56:32.830Z,46.70
2022-12-24T00:59:01.897Z,44.20
2022-12-24T01:01:30.760Z,44.47
2022-12-24T01:04:13.643Z,42.63
2022-12-24T01:06:44.731Z,44.07
2022-12-24T01:09:15.193Z,41.80
2022-12-24T01:11:44.311Z,45.43
2022-12-24T01:14:13.033Z,45.33
2022-12-24T01:16:42.071Z,42.60
2022-12-24T01:19:11.233Z,42.47
2022-12-24T01:21:40.203Z,36.90
2022-12-24T01:24:09.183Z,42.53
2022-12-24T01:26:42.552Z,40.03
2022-12-24T01:29:11.703Z,39.93
2022-12-24T01:31:40.755Z,40.93
2022-12-24T01:34:09.718Z,47.83
2022-12-24T01:36:41.456Z,44.30
2022-12-24T01:39:10.449Z,44.97
2022-12-24T01:41:58.111Z,43.60
2022-12-24T01:44:33.499Z,43.73
2022-12-24T01:47:11.017Z,43.17
2022-12-24T01:49:43.681Z,44.73
2022-12-24T01:52:17.663Z,45.57
2022-12-24T01:54:49.521Z,42.97
2022-12-24T01:57:24.461Z,44.93
2022-12-24T01:59:58.075Z,39.97
2022-12-24T02:02:27.607Z,40.77
2022-12-24T02:05:02.832Z,39.73
2022-12-24T02:07:32.486Z,41.53
2022-12-24T02:10:03.109Z,40.03
2022-12-24T02:12:36.043Z,36.73
2022-12-24T02:15:05.491Z,35.43
2022-12-24T02:17:40.822Z,34.17
2022-12-24T02:20:51.164Z,36.57
2022-12-24T02:24:02.954Z,35.17
2022-12-24T02:26:50.019Z,35.37
2022-12-24T02:29:39.477Z,33.73
2022-12-24T02:32:16.072Z,29.87
2022-12-24T02:34:51.005Z,29.73
2022-12-24T02:37:27.209Z,32.73
2022-12-24T02:40:01.081Z,43.67
2022-12-24T02:42:39.578Z,40.47
2022-12-24T02:45:12.389Z,40.27
2022-12-24T02:47:45.401Z,40.40
2022-12-24T02:50:16.118Z,36.87
2022-12-24T02:52:46.673Z,41.83
2022-12-24T02:55:19.477Z,38.30
2022-12-24T02:58:03.066Z,36.17
2022-12-24T03:00:44.860Z,39.70
2022-12-24T03:03:32.465Z,40.43
2022-12-24T03:06:11.145Z,41.87
2022-12-24T03:08:48.717Z,40.23
2022-12-24T03:11:17.849Z,38.77
2022-12-24T03:13:47.020Z,39.57
2022-12-24T03:16:19.738Z,40.57
2022-12-24T03:18:52.335Z,37.17
2022-12-24T03:21:25.608Z,39.60
2022-12-24T03:23:54.528Z,39.63
2022-12-24T03:26:24.566Z,41.50
2022-12-24T03:28:54.208Z,40.00
2022-12-24T03:31:25.983Z,36.47
2022-12-24T03:33:56.191Z,34.73
2022-12-24T03:36:25.758Z,35.93
2022-12-24T03:38:54.372Z,34.77
2022-12-24T03:41:22.973Z,34.00
2022-12-24T03:43:51.655Z,34.97
2022-12-24T03:46:20.354Z,33.93
2022-12-24T03:48:49.080Z,34.20
2022-12-24T03:51:21.833Z,37.60
2022-12-24T03:53:50.572Z,34.63
2022-12-24T03:56:19.337Z,37.87
2022-12-24T03:58:48.658Z,36.60
2022-12-24T04:01:17.756Z,36.97
2022-12-24T04:03:47.038Z,38.10
2022-12-24T04:06:18.107Z,36.83
2022-12-24T04:08:48.208Z,41.30
2022-12-24T04:11:19.713Z,40.50
2022-12-24T04:13:48.380Z,39.60
2022-12-24T04:16:18.350Z,36.70
2022-12-24T04:18:47.016Z,42.03
2022-12-24T04:21:15.821Z,35.77
2022-12-24T04:23:44.952Z,31.30
2022-12-24T04:26:15.150Z,36.13
2022-12-24T04:28:44.502Z,33.67
2022-12-24T04:31:16.047Z,36.40
2022-12-24T04:33:46.196Z,34.67
2022-12-24T04:36:17.259Z,34.30
2022-12-24T04:38:46.756Z,33.50
2022-12-24T04:41:23.103Z,31.00
2022-12-24T04:43:53.803Z,32.27
2022-12-24T04:46:25.406Z,38.57
2022-12-24T04:48:55.355Z,31.03
2022-12-24T04:51:25.597Z,34.77
2022-12-24T04:53:54.786Z,36.50
2022-12-24T04:56:26.606Z,33.37
2022-12-24T04:58:56.251Z,36.63
2022-12-24T05:01:26.940Z,42.40
2022-12-24T05:03:56.476Z,39.47
2022-12-24T05:06:27.410Z,38.77
2022-12-24T05:08:56.956Z,37.90
2022-12-24T05:11:27.491Z,36.63
2022-12-24T05:13:56.235Z,39.93
2022-12-24T05:16:26.283Z,35.07
2022-12-24T05:18:55.447Z,33.87
2022-12-24T05:21:26.169Z,36.47
2022-12-24T05:24:09.089Z,35.93
2022-12-24T05:26:42.899Z,36.23
2022-12-24T05:29:13.514Z,34.50
2022-12-24T05:31:43.767Z,35.30
2022-12-24T05:34:12.811Z,33.17
2022-12-24T05:36:41.693Z,36.33
2022-12-24T05:39:15.756Z,36.80
2022-12-24T05:41:47.157Z,35.57
2022-12-24T05:44:16.444Z,37.33
2022-12-24T05:46:45.633Z,39.93
2022-12-24T05:49:14.528Z,33.13
2022-12-24T05:51:43.317Z,35.53
2022-12-24T05:54:12.308Z,34.67
2022-12-24T05:56:41.045Z,35.07
2022-12-24T05:59:11.172Z,34.63
2022-12-24T06:01:39.983Z,33.90
2022-12-24T06:04:08.789Z,33.47
2022-12-24T06:06:37.434Z,39.37
2022-12-24T06:09:06.052Z,37.93
2022-12-24T06:11:35.050Z,35.97
2022-12-24T06:14:03.769Z,33.67
2022-12-24T06:16:33.865Z,35.00
2022-12-24T06:19:02.566Z,32.37
2022-12-24T06:21:31.251Z,33.07
2022-12-24T06:23:59.979Z,31.33
2022-12-24T06:26:28.630Z,34.17
2022-12-24T06:28:57.305Z,28.63
2022-12-24T06:31:26.226Z,31.47
2022-12-24T06:33:56.310Z,30.03
2022-12-24T06:36:26.360Z,29.67
2022-12-24T06:38:56.076Z,32.97
2022-12-24T06:41:24.795Z,31.33
2022-12-24T06:43:54.353Z,29.47
2022-12-24T06:46:27.246Z,32.38
2022-12-24T06:48:57.449Z,35.20
2022-12-24T06:51:26.132Z,41.03
2022-12-24T06:53:55.327Z,34.13
2022-12-24T06:56:23.974Z,34.97
2022-12-24T06:58:52.671Z,32.07
2022-12-24T07:01:24.581Z,32.70
2022-12-24T07:03:53.262Z,35.93
2022-12-24T07:06:27.047Z,35.00
2022-12-24T07:08:55.965Z,33.73
2022-12-24T07:11:26.138Z,34.60
2022-12-24T07:13:54.984Z,31.50
2022-12-24T07:16:23.659Z,35.67
2022-12-24T07:18:52.544Z,31.70
2022-12-24T07:21:22.619Z,34.20
2022-12-24T07:23:51.509Z,30.63
2022-12-24T07:26:20.234Z,32.37
2022-12-24T07:28:49.129Z,30.17
2022-12-24T07:31:18.099Z,31.08
2022-12-24T07:33:52.496Z,30.57
2022-12-24T07:36:24.843Z,30.80
2022-12-24T07:38:53.872Z,31.40
2022-12-24T07:41:22.885Z,30.87
2022-12-24T07:43:51.813Z,29.30
2022-12-24T07:46:21.785Z,35.37
2022-12-24T07:49:01.623Z,31.03
2022-12-24T07:51:31.756Z,30.97
2022-12-24T07:54:01.412Z,30.47
2022-12-24T07:56:30.071Z,28.33
2022-12-24T07:58:58.875Z,28.70
2022-12-24T08:01:27.586Z,32.97
2022-12-24T08:03:56.598Z,28.90
2022-12-24T08:06:25.621Z,27.60
2022-12-24T08:08:56.433Z,30.70
2022-12-24T08:11:25.060Z,27.13
2022-12-24T08:13:53.802Z,29.43
2022-12-24T08:16:22.544Z,29.20
2022-12-24T08:18:51.141Z,27.83
2022-12-24T08:21:20.283Z,29.47
2022-12-24T08:23:49.202Z,27.17
2022-12-24T08:26:19.205Z,29.30
2022-12-24T08:28:48.016Z,26.45
2022-12-24T08:31:17.167Z,24.37
2022-12-24T08:33:45.787Z,26.03
2022-12-24T08:36:14.368Z,23.60
2022-12-24T08:38:42.903Z,25.77
2022-12-24T08:41:11.492Z,22.50
2022-12-24T08:43:41.607Z,23.87
2022-12-24T08:46:11.290Z,26.23
2022-12-24T08:48:39.887Z,25.87
2022-12-24T08:51:10.013Z,23.50
2022-12-24T08:53:38.806Z,25.33
2022-12-24T08:56:09.725Z,22.50
2022-12-24T08:58:39.174Z,24.20
2022-12-24T09:01:15.709Z,26.90
2022-12-24T09:03:44.650Z,23.90
2022-12-24T09:06:13.739Z,50.80
2022-12-24T09:08:42.353Z,36.53
2022-12-24T09:11:13.026Z,41.43
2022-12-24T09:13:42.134Z,37.10
2022-12-24T09:16:12.964Z,89.80
2022-12-24T09:18:42.127Z,80.50
2022-12-24T09:21:14.542Z,70.90
2022-12-24T09:23:44.255Z,324.90
2022-12-24T09:26:16.580Z,101.53
2022-12-24T09:28:45.529Z,321.23
2022-12-24T09:31:16.827Z,449.17
2022-12-24T09:33:48.423Z,501.03
2022-12-24T09:36:17.073Z,112.10
2022-12-24T09:38:46.464Z,248.63
2022-12-24T09:41:16.739Z,330.93
2022-12-24T09:43:50.700Z,166.37
2022-12-24T09:46:26.677Z,535.87
2022-12-24T09:48:59.341Z,197.82
2022-12-24T09:51:33.360Z,285.47
2022-12-24T09:54:05.571Z,541.97
2022-12-24T09:56:40.186Z,571.93
2022-12-24T09:59:14.997Z,298.70
2022-12-24T10:01:45.222Z,292.93
2022-12-24T10:04:16.982Z,92.40
2022-12-24T10:06:53.416Z,290.20
2022-12-24T10:09:31.321Z,202.57
2022-12-24T10:12:10.963Z,60.83
2022-12-24T10:14:56.019Z,158.87
2022-12-24T10:17:39.822Z,253.90
2022-12-24T10:20:38.718Z,332.80
2022-12-24T10:23:15.632Z,165.90
2022-12-24T10:25:51.336Z,157.63
2022-12-24T10:28:23.260Z,78.30
2022-12-24T10:30:56.831Z,48.13
2022-12-24T10:33:33.745Z,39.67
2022-12-24T10:36:06.781Z,53.80
2022-12-24T10:38:38.718Z,37.93
2022-12-24T10:41:08.906Z,38.67
2022-12-24T10:43:40.252Z,45.40
2022-12-24T10:46:18.282Z,27.65
2022-12-24T10:48:53.298Z,27.97
2022-12-24T10:51:27.117Z,25.60
2022-12-24T10:54:02.011Z,31.17
2022-12-24T10:56:30.651Z,25.03
2022-12-24T10:58:59.303Z,29.25
2022-12-24T11:01:46.477Z,26.40
2022-12-24T11:04:21.321Z,29.07
2022-12-24T11:07:01.460Z,28.07
2022-12-24T11:09:32.420Z,26.40
2022-12-24T11:12:08.616Z,27.60
2022-12-24T11:14:40.398Z,24.85
2022-12-24T11:17:09.424Z,24.47
2022-12-24T11:19:41.055Z,27.10
2022-12-24T11:22:19.391Z,22.87
2022-12-24T11:24:50.219Z,25.30
2022-12-24T11:27:41.396Z,29.83
2022-12-24T11:30:26.262Z,28.33
2022-12-24T11:33:21.649Z,29.00
2022-12-24T11:36:08.542Z,28.63
2022-12-24T11:38:38.329Z,29.23
2022-12-24T11:41:09.408Z,28.07
2022-12-24T11:43:48.126Z,30.43
2022-12-24T11:46:20.715Z,28.73
2022-12-24T11:48:50.190Z,221.40
2022-12-24T11:51:25.840Z,438.13
2022-12-24T11:54:03.606Z,555.93
2022-12-24T11:56:38.332Z,389.53
2022-12-24T11:59:18.319Z,177.60
2022-12-24T12:01:54.887Z,157.13
2022-12-24T12:04:26.279Z,136.07
2022-12-24T12:07:00.526Z,497.30
2022-12-24T12:09:32.087Z,326.87
2022-12-24T12:12:06.549Z,507.10
2022-12-24T12:14:38.420Z,294.90
2022-12-24T12:17:20.323Z,119.93
2022-12-24T12:19:54.720Z,191.73
2022-12-24T12:22:36.652Z,149.50
2022-12-24T12:25:08.205Z,256.60
2022-12-24T12:27:41.241Z,202.70
2022-12-24T12:30:18.141Z,202.02
2022-12-24T12:32:53.887Z,136.87
2022-12-24T12:35:27.424Z,51.50
2022-12-24T12:38:03.595Z,251.70
2022-12-24T12:40:54.669Z,113.73
2022-12-24T12:43:37.317Z,80.70
2022-12-24T12:46:15.503Z,46.73
2022-12-24T12:49:09.383Z,33.30
2022-12-24T12:51:44.127Z,52.47
2022-12-24T12:54:41.883Z,45.03
2022-12-24T12:57:16.540Z,50.20
2022-12-24T12:59:51.503Z,52.07
2022-12-24T13:02:42.369Z,42.00
2022-12-24T13:05:49.809Z,32.83
2022-12-24T13:08:53.067Z,45.70
2022-12-24T13:11:42.134Z,51.20
2022-12-24T13:14:49.008Z,32.33
2022-12-24T13:17:42.908Z,42.77
2022-12-24T13:20:22.668Z,49.60
2022-12-24T13:22:55.823Z,69.70
2022-12-24T13:25:28.371Z,51.20
2022-12-24T13:28:22.841Z,41.03
2022-12-24T13:30:58.412Z,37.93
2022-12-24T13:33:48.660Z,43.23
2022-12-24T13:36:20.541Z,34.90
2022-12-24T13:38:50.153Z,37.90
2022-12-24T13:41:57.746Z,39.37
2022-12-24T13:44:37.124Z,40.57
2022-12-24T13:47:32.029Z,38.47
2022-12-24T13:50:22.765Z,43.10
2022-12-24T13:52:54.610Z,45.60
2022-12-24T13:55:24.422Z,49.83
2022-12-24T13:57:59.621Z,37.47
2022-12-24T14:00:39.470Z,42.67
2022-12-24T14:03:24.509Z,51.17
2022-12-24T14:05:56.841Z,50.43
2022-12-24T14:08:36.881Z,49.23
2022-12-24T14:11:10.320Z,51.60
2022-12-24T14:14:13.373Z,55.87
2022-12-24T14:16:52.638Z,60.80
2022-12-24T14:19:24.202Z,61.17
2022-12-24T14:22:00.850Z,61.00
2022-12-24T14:24:35.620Z,62.13
2022-12-24T14:27:16.254Z,60.87
2022-12-24T14:29:55.317Z,61.83
2022-12-24T14:32:25.390Z,62.70
2022-12-24T14:35:08.381Z,69.23
2022-12-24T14:37:37.361Z,66.47
2022-12-24T14:40:07.992Z,59.40
2022-12-24T14:42:43.501Z,56.47
2022-12-24T14:45:26.657Z,59.00
2022-12-24T14:48:05.822Z,50.97
2022-12-24T14:51:08.340Z,53.40
2022-12-24T14:54:06.023Z,45.27
2022-12-24T14:56:34.781Z,48.07
2022-12-24T14:59:16.914Z,47.87
2022-12-24T15:01:46.457Z,48.27
2022-12-24T15:04:19.519Z,51.70
2022-12-24T15:06:50.820Z,51.63
2022-12-24T15:09:21.650Z,50.17
2022-12-24T15:11:53.067Z,52.23
2022-12-24T15:14:23.256Z,60.10
2022-12-24T15:16:57.648Z,59.33
2022-12-24T15:19:30.482Z,64.00
2022-12-24T15:21:59.345Z,62.20
2022-12-24T15:24:32.507Z,66.83
2022-12-24T15:27:03.243Z,66.10
2022-12-24T15:29:33.524Z,61.97
2022-12-24T15:32:05.046Z,64.17
2022-12-24T15:34:40.186Z,64.93
2022-12-24T15:37:14.163Z,57.37
2022-12-24T15:39:43.457Z,60.37
2022-12-24T15:42:18.798Z,58.10
2022-12-24T15:44:58.561Z,60.80
2022-12-24T15:47:30.861Z,62.10
2022-12-24T15:50:00.985Z,57.00
2022-12-24T15:52:30.140Z,61.97
2022-12-24T15:54:58.972Z,56.83
2022-12-24T15:57:33.053Z,62.60
2022-12-24T16:00:05.555Z,61.23
2022-12-24T16:02:40.434Z,61.07
2022-12-24T16:05:34.676Z,62.70
2022-12-24T16:08:33.982Z,61.07
2022-12-24T16:11:13.089Z,59.43
2022-12-24T16:13:44.409Z,64.27
2022-12-24T16:16:15.593Z,54.87
2022-12-24T16:18:53.047Z,59.10
2022-12-24T16:21:27.122Z,57.53
2022-12-24T16:23:57.819Z,59.60
2022-12-24T16:26:29.508Z,53.92
2022-12-24T16:28:58.270Z,57.25
2022-12-24T16:31:32.411Z,52.20
2022-12-24T16:34:02.533Z,52.43
2022-12-24T16:36:33.684Z,52.00
2022-12-24T16:39:20.082Z,55.83
2022-12-24T16:42:06.409Z,51.93
2022-12-24T16:44:35.017Z,56.80
2022-12-24T16:47:03.680Z,52.83
2022-12-24T16:49:32.380Z,51.43
2022-12-24T16:52:02.529Z,53.10
2022-12-24T16:54:31.189Z,49.83
2022-12-24T16:56:59.905Z,55.63
2022-12-24T16:59:28.535Z,56.87
2022-12-24T17:01:59.242Z,54.63
2022-12-24T17:04:27.978Z,56.30
2022-12-24T17:06:56.642Z,53.63
2022-12-24T17:09:28.033Z,57.87
2022-12-24T17:11:59.016Z,53.23
2022-12-24T17:14:27.888Z,58.13
2022-12-24T17:16:56.782Z,50.97
2022-12-24T17:19:25.355Z,56.23
2022-12-24T17:21:55.251Z,55.83
2022-12-24T17:24:23.881Z,52.70
2022-12-24T17:26:54.168Z,54.23
2022-12-24T17:29:22.916Z,57.53
2022-12-24T17:31:51.672Z,56.90
2022-12-24T17:34:20.415Z,57.75
2022-12-24T17:36:49.076Z,54.00
2022-12-24T17:39:22.374Z,48.20
2022-12-24T17:41:58.152Z,53.47
2022-12-24T17:44:26.795Z,48.80
2022-12-24T17:46:55.711Z,46.30
2022-12-24T17:49:24.561Z,55.97
2022-12-24T17:51:53.235Z,44.53
2022-12-24T17:54:21.993Z,47.30
2022-12-24T17:56:50.567Z,47.57
2022-12-24T17:59:20.584Z,43.45
2022-12-24T18:01:49.244Z,43.20
2022-12-24T18:04:18.051Z,42.60
2022-12-24T18:06:49.652Z,42.77
2022-12-24T18:09:18.750Z,42.70
2022-12-24T18:11:47.345Z,49.50
2022-12-24T18:14:15.991Z,50.47
2022-12-24T18:16:46.311Z,49.50
2022-12-24T18:19:14.978Z,51.90
2022-12-24T18:21:43.527Z,50.10
2022-12-24T18:24:13.381Z,48.80
2022-12-24T18:26:42.219Z,50.73
2022-12-24T18:29:11.417Z,44.67
2022-12-24T18:31:40.501Z,47.13
2022-12-24T18:34:14.519Z,48.17
2022-12-24T18:36:43.332Z,49.27
2022-12-24T18:39:11.948Z,42.72
2022-12-24T18:41:40.845Z,46.37
2022-12-24T18:44:10.894Z,45.47
2022-12-24T18:46:39.531Z,47.13
2022-12-24T18:49:11.815Z,46.40
2022-12-24T18:51:40.396Z,48.13
2022-12-24T18:54:09.025Z,49.67
2022-12-24T18:56:37.595Z,48.30
2022-12-24T18:59:06.355Z,46.97
2022-12-24T19:01:36.500Z,52.93
2022-12-24T19:04:05.286Z,49.40
2022-12-24T19:06:35.400Z,47.43
2022-12-24T19:09:04.680Z,47.27
2022-12-24T19:11:34.530Z,48.90
2022-12-24T19:14:04.425Z,50.57
2022-12-24T19:16:36.339Z,55.43
2022-12-24T19:19:06.521Z,54.30
2022-12-24T19:21:37.379Z,51.40
2022-12-24T19:24:07.761Z,54.53
2022-12-24T19:26:36.424Z,56.93
2022-12-24T19:29:05.066Z,52.43
2022-12-24T19:31:33.759Z,49.67
2022-12-24T19:34:02.507Z,45.80
2022-12-24T19:36:32.040Z,53.37
2022-12-24T19:39:04.939Z,49.20
2022-12-24T19:41:33.792Z,46.57
2022-12-24T19:44:03.246Z,48.07
2022-12-24T19:46:33.858Z,45.00
2022-12-24T19:49:05.322Z,43.33
2022-12-24T19:51:34.586Z,47.47
2022-12-24T19:54:06.407Z,44.93
2022-12-24T19:56:35.267Z,45.40
2022-12-24T19:59:04.387Z,44.67
2022-12-24T20:01:34.205Z,45.07
2022-12-24T20:04:03.667Z,42.43
2022-12-24T20:06:34.315Z,42.30
2022-12-24T20:09:06.961Z,41.77
2022-12-24T20:11:36.609Z,42.33
2022-12-24T20:14:07.546Z,42.43
2022-12-24T20:16:37.012Z,43.83
2022-12-24T20:19:07.400Z,41.60
2022-12-24T20:21:36.069Z,40.42
2022-12-24T20:24:06.856Z,38.17
2022-12-24T20:26:35.758Z,37.07
2022-12-24T20:29:05.830Z,36.40
2022-12-24T20:31:35.088Z,40.00
2022-12-24T20:34:05.490Z,38.53
2022-12-24T20:36:34.307Z,36.83
2022-12-24T20:39:03.202Z,40.03
2022-12-24T20:41:35.431Z,41.23
2022-12-24T20:44:04.802Z,41.80
2022-12-24T20:46:33.975Z,46.73
2022-12-24T20:49:02.804Z,43.43
2022-12-24T20:51:33.005Z,45.77
2022-12-24T20:54:02.371Z,43.13
2022-12-24T20:56:32.950Z,42.37
2022-12-24T20:59:02.833Z,40.80
2022-12-24T21:01:34.904Z,39.60
2022-12-24T21:04:08.354Z,40.93
2022-12-24T21:06:38.357Z,39.10
2022-12-24T21:09:10.080Z,43.73
2022-12-24T21:11:59.976Z,46.03
2022-12-24T21:14:29.074Z,54.37
2022-12-24T21:16:57.720Z,38.53
2022-12-24T21:19:27.140Z,42.63
2022-12-24T21:21:56.245Z,51.27
2022-12-24T21:24:24.923Z,64.53
2022-12-24T21:26:54.832Z,50.53
2022-12-24T21:29:23.463Z,40.33
2022-12-24T21:31:52.130Z,47.97
2022-12-24T21:34:20.771Z,43.07
2022-12-24T21:36:49.385Z,43.90
2022-12-24T21:39:17.996Z,63.80
2022-12-24T21:41:46.619Z,56.80
2022-12-24T21:44:30.145Z,58.40
2022-12-24T21:47:04.349Z,42.97
2022-12-24T21:49:51.687Z,47.27
2022-12-24T21:52:20.438Z,41.77
2022-12-24T21:54:53.606Z,41.90
2022-12-24T21:57:40.072Z,38.23
2022-12-24T22:00:24.691Z,43.30
2022-12-24T22:02:56.134Z,37.23
2022-12-24T22:05:26.291Z,42.50
2022-12-24T22:08:12.929Z,39.27
2022-12-24T22:10:59.154Z,37.10
2022-12-24T22:13:28.806Z,42.07
2022-12-24T22:15:59.201Z,38.10
2022-12-24T22:18:28.243Z,44.90
2022-12-24T22:20:57.469Z,47.03
2022-12-24T22:23:26.193Z,46.00
2022-12-24T22:25:55.018Z,52.40
2022-12-24T22:28:23.689Z,44.83
2022-12-24T22:30:52.630Z,46.55
2022-12-24T22:33:22.893Z,35.47
2022-12-24T22:35:51.916Z,32.85
2022-12-24T22:38:20.652Z,35.85
2022-12-24T22:40:49.688Z,38.03
2022-12-24T22:43:18.240Z,39.97
2022-12-24T22:45:46.899Z,34.33
2022-12-24T22:48:16.168Z,36.97
2022-12-24T22:50:46.246Z,43.67
2022-12-24T22:53:14.779Z,49.80
2022-12-24T22:55:43.517Z,53.00
2022-12-24T22:58:12.059Z,52.07
2022-12-24T23:00:43.470Z,38.70
2022-12-24T23:03:13.047Z,38.33
2022-12-24T23:05:41.901Z,36.30
2022-12-24T23:08:13.317Z,37.28
2022-12-24T23:10:42.469Z,38.43
2022-12-24T23:13:31.430Z,34.03
2022-12-24T23:16:03.602Z,34.63
2022-12-24T23:18:32.628Z,32.07
2022-12-24T23:21:05.536Z,32.17
2022-12-24T23:23:37.426Z,33.87
2022-12-24T23:26:07.213Z,30.63
2022-12-24T23:28:35.782Z,32.83
2022-12-24T23:31:05.438Z,32.77
2022-12-24T23:33:34.394Z,33.60
2022-12-24T23:36:03.625Z,33.30
2022-12-24T23:38:32.384Z,32.57
2022-12-24T23:41:05.181Z,34.37
2022-12-24T23:43:34.915Z,32.50
2022-12-24T23:46:03.991Z,35.87
2022-12-24T23:48:32.696Z,34.13
2022-12-24T23:51:09.022Z,33.87
2022-12-24T23:53:37.761Z,34.87
2022-12-24T23:56:11.101Z,32.47
2022-12-24T23:58:41.079Z,32.90
